sensor_id;sensor_type;location;lat;lon;timestamp;temperature;humidity
51878;SHT31;37911;51.526;11.536;2023-11-21T00:00:31;5.95;91.74
51878;SHT31;37911;51.526;11.536;2023-11-21T00:03:34;5.97;91.65
51878;SHT31;37911;51.526;11.536;2023-11-21T00:06:40;5.90;91.72
51878;SHT31;37911;51.526;11.536;2023-11-21T00:09:48;5.87;91.67
51878;SHT31;37911;51.526;11.536;2023-11-21T00:12:51;5.87;91.52
51878;SHT31;37911;51.526;11.536;2023-11-21T00:15:55;5.80;91.34
51878;SHT31;37911;51.526;11.536;2023-11-21T00:18:58;5.71;91.51
51878;SHT31;37911;51.526;11.536;2023-11-21T00:22:05;5.68;91.48
51878;SHT31;37911;51.526;11.536;2023-11-21T00:25:09;5.70;91.44
51878;SHT31;37911;51.526;11.536;2023-11-21T00:28:14;5.73;91.63
51878;SHT31;37911;51.526;11.536;2023-11-21T00:31:18;5.75;91.67
51878;SHT31;37911;51.526;11.536;2023-11-21T00:34:21;5.73;91.75
51878;SHT31;37911;51.526;11.536;2023-11-21T00:37:27;5.75;91.79
51878;SHT31;37911;51.526;11.536;2023-11-21T00:40:32;5.71;91.96
51878;SHT31;37911;51.526;11.536;2023-11-21T00:43:35;5.64;91.85
51878;SHT31;37911;51.526;11.536;2023-11-21T00:46:39;5.66;91.70
51878;SHT31;37911;51.526;11.536;2023-11-21T00:49:42;5.60;91.70
51878;SHT31;37911;51.526;11.536;2023-11-21T00:52:49;5.61;91.82
51878;SHT31;37911;51.526;11.536;2023-11-21T00:55:52;5.51;91.64
51878;SHT31;37911;51.526;11.536;2023-11-21T00:58:58;5.54;91.76
51878;SHT31;37911;51.526;11.536;2023-11-21T01:02:01;5.46;91.76
51878;SHT31;37911;51.526;11.536;2023-11-21T01:05:06;5.48;91.75
51878;SHT31;37911;51.526;11.536;2023-11-21T01:08:13;5.40;91.64
51878;SHT31;37911;51.526;11.536;2023-11-21T01:11:17;5.39;91.84
51878;SHT31;37911;51.526;11.536;2023-11-21T01:14:21;5.42;91.94
51878;SHT31;37911;51.526;11.536;2023-11-21T01:17:26;5.40;92.04
51878;SHT31;37911;51.526;11.536;2023-11-21T01:20:30;5.44;91.90
51878;SHT31;37911;51.526;11.536;2023-11-21T01:23:36;5.43;91.73
51878;SHT31;37911;51.526;11.536;2023-11-21T01:26:40;5.42;91.78
51878;SHT31;37911;51.526;11.536;2023-11-21T01:29:44;5.33;92.04
51878;SHT31;37911;51.526;11.536;2023-11-21T01:32:47;5.35;92.27
51878;SHT31;37911;51.526;11.536;2023-11-21T01:35:50;5.39;92.41
51878;SHT31;37911;51.526;11.536;2023-11-21T01:38:58;5.48;92.26
51878;SHT31;37911;51.526;11.536;2023-11-21T01:42:02;5.48;92.54
51878;SHT31;37911;51.526;11.536;2023-11-21T01:45:07;5.47;92.85
51878;SHT31;37911;51.526;11.536;2023-11-21T01:48:11;5.50;92.87
51878;SHT31;37911;51.526;11.536;2023-11-21T01:51:17;5.54;92.79
51878;SHT31;37911;51.526;11.536;2023-11-21T01:54:24;5.58;92.82
51878;SHT31;37911;51.526;11.536;2023-11-21T01:57:31;5.58;92.85
51878;SHT31;37911;51.526;11.536;2023-11-21T02:00:35;5.61;92.73
51878;SHT31;37911;51.526;11.536;2023-11-21T02:03:39;5.61;92.75
51878;SHT31;37911;51.526;11.536;2023-11-21T02:06:42;5.60;92.80
51878;SHT31;37911;51.526;11.536;2023-11-21T02:09:49;5.66;92.85
51878;SHT31;37911;51.526;11.536;2023-11-21T02:12:52;5.71;92.75
51878;SHT31;37911;51.526;11.536;2023-11-21T02:15:56;5.67;92.88
51878;SHT31;37911;51.526;11.536;2023-11-21T02:19:01;5.78;92.78
51878;SHT31;37911;51.526;11.536;2023-11-21T02:22:04;5.83;92.78
51878;SHT31;37911;51.526;11.536;2023-11-21T02:25:13;5.78;92.97
51878;SHT31;37911;51.526;11.536;2023-11-21T02:28:16;5.81;93.07
51878;SHT31;37911;51.526;11.536;2023-11-21T02:31:26;5.90;93.00
51878;SHT31;37911;51.526;11.536;2023-11-21T02:34:30;5.87;93.19
51878;SHT31;37911;51.526;11.536;2023-11-21T02:37:34;5.94;93.21
51878;SHT31;37911;51.526;11.536;2023-11-21T02:40:41;5.95;93.24
51878;SHT31;37911;51.526;11.536;2023-11-21T02:43:45;5.98;93.27
51878;SHT31;37911;51.526;11.536;2023-11-21T02:46:48;5.98;93.37
51878;SHT31;37911;51.526;11.536;2023-11-21T02:49:51;6.00;93.44
51878;SHT31;37911;51.526;11.536;2023-11-21T02:52:55;6.07;93.37
51878;SHT31;37911;51.526;11.536;2023-11-21T02:56:03;6.07;93.34
51878;SHT31;37911;51.526;11.536;2023-11-21T02:59:07;6.08;93.29
51878;SHT31;37911;51.526;11.536;2023-11-21T03:02:11;6.12;93.09
51878;SHT31;37911;51.526;11.536;2023-11-21T03:05:16;6.15;93.06
51878;SHT31;37911;51.526;11.536;2023-11-21T03:08:20;6.11;93.11
51878;SHT31;37911;51.526;11.536;2023-11-21T03:11:26;6.10;92.87
51878;SHT31;37911;51.526;11.536;2023-11-21T03:14:29;6.08;92.95
51878;SHT31;37911;51.526;11.536;2023-11-21T03:17:34;6.05;92.80
51878;SHT31;37911;51.526;11.536;2023-11-21T03:20:37;5.98;92.80
51878;SHT31;37911;51.526;11.536;2023-11-21T03:23:41;6.05;92.51
51878;SHT31;37911;51.526;11.536;2023-11-21T03:26:48;5.98;92.53
51878;SHT31;37911;51.526;11.536;2023-11-21T03:29:52;5.97;92.54
51878;SHT31;37911;51.526;11.536;2023-11-21T03:32:56;5.95;92.43
51878;SHT31;37911;51.526;11.536;2023-11-21T03:35:59;5.87;92.48
51878;SHT31;37911;51.526;11.536;2023-11-21T03:39:04;5.86;92.43
51878;SHT31;37911;51.526;11.536;2023-11-21T03:42:10;5.80;92.36
51878;SHT31;37911;51.526;11.536;2023-11-21T03:45:13;5.83;92.23
51878;SHT31;37911;51.526;11.536;2023-11-21T03:48:17;5.75;92.19
51878;SHT31;37911;51.526;11.536;2023-11-21T03:51:21;5.78;92.22
51878;SHT31;37911;51.526;11.536;2023-11-21T03:54:24;5.78;92.22
51878;SHT31;37911;51.526;11.536;2023-11-21T03:57:30;5.86;92.07
51878;SHT31;37911;51.526;11.536;2023-11-21T04:00:34;5.80;92.04
51878;SHT31;37911;51.526;11.536;2023-11-21T04:03:37;5.75;92.09
51878;SHT31;37911;51.526;11.536;2023-11-21T04:06:41;5.78;92.07
51878;SHT31;37911;51.526;11.536;2023-11-21T04:09:44;5.77;92.21
51878;SHT31;37911;51.526;11.536;2023-11-21T04:12:50;5.80;92.22
51878;SHT31;37911;51.526;11.536;2023-11-21T04:15:54;5.84;92.10
51878;SHT31;37911;51.526;11.536;2023-11-21T04:18:57;5.83;92.23
51878;SHT31;37911;51.526;11.536;2023-11-21T04:22:01;5.83;92.20
51878;SHT31;37911;51.526;11.536;2023-11-21T04:25:05;5.84;92.18
51878;SHT31;37911;51.526;11.536;2023-11-21T04:28:11;5.87;92.10
51878;SHT31;37911;51.526;11.536;2023-11-21T04:31:14;5.88;92.02
51878;SHT31;37911;51.526;11.536;2023-11-21T04:34:17;5.87;92.05
51878;SHT31;37911;51.526;11.536;2023-11-21T04:37:21;5.87;92.11
51878;SHT31;37911;51.526;11.536;2023-11-21T04:40:25;5.83;92.04
51878;SHT31;37911;51.526;11.536;2023-11-21T04:43:31;5.84;92.14
51878;SHT31;37911;51.526;11.536;2023-11-21T04:46:34;5.86;92.13
51878;SHT31;37911;51.526;11.536;2023-11-21T04:49:39;5.88;91.98
51878;SHT31;37911;51.526;11.536;2023-11-21T04:52:42;5.87;91.80
51878;SHT31;37911;51.526;11.536;2023-11-21T04:55:46;5.90;91.93
51878;SHT31;37911;51.526;11.536;2023-11-21T04:58:52;5.90;91.98
51878;SHT31;37911;51.526;11.536;2023-11-21T05:01:56;5.93;92.00
51878;SHT31;37911;51.526;11.536;2023-11-21T05:05:00;5.93;92.01
51878;SHT31;37911;51.526;11.536;2023-11-21T05:08:06;5.94;92.05
51878;SHT31;37911;51.526;11.536;2023-11-21T05:11:09;5.94;92.22
51878;SHT31;37911;51.526;11.536;2023-11-21T05:14:16;5.93;92.33
51878;SHT31;37911;51.526;11.536;2023-11-21T05:17:19;5.97;92.40
51878;SHT31;37911;51.526;11.536;2023-11-21T05:20:23;5.95;92.56
51878;SHT31;37911;51.526;11.536;2023-11-21T05:23:26;6.01;92.56
51878;SHT31;37911;51.526;11.536;2023-11-21T05:26:30;6.05;92.73
51878;SHT31;37911;51.526;11.536;2023-11-21T05:29:36;6.02;92.83
51878;SHT31;37911;51.526;11.536;2023-11-21T05:32:40;6.05;92.84
51878;SHT31;37911;51.526;11.536;2023-11-21T05:35:46;6.04;92.91
51878;SHT31;37911;51.526;11.536;2023-11-21T05:38:51;6.05;92.97
51878;SHT31;37911;51.526;11.536;2023-11-21T05:41:54;6.08;92.91
51878;SHT31;37911;51.526;11.536;2023-11-21T05:45:00;6.10;92.75
51878;SHT31;37911;51.526;11.536;2023-11-21T05:48:10;6.08;92.85
51878;SHT31;37911;51.526;11.536;2023-11-21T05:51:13;6.11;92.94
51878;SHT31;37911;51.526;11.536;2023-11-21T05:54:18;6.10;92.93
51878;SHT31;37911;51.526;11.536;2023-11-21T05:57:21;6.12;92.93
51878;SHT31;37911;51.526;11.536;2023-11-21T06:00:27;6.14;93.09
51878;SHT31;37911;51.526;11.536;2023-11-21T06:03:32;6.14;93.22
51878;SHT31;37911;51.526;11.536;2023-11-21T06:06:35;6.18;93.27
51878;SHT31;37911;51.526;11.536;2023-11-21T06:09:39;6.18;93.37
51878;SHT31;37911;51.526;11.536;2023-11-21T06:12:42;6.21;93.36
51878;SHT31;37911;51.526;11.536;2023-11-21T06:15:49;6.25;93.45
51878;SHT31;37911;51.526;11.536;2023-11-21T06:18:52;6.29;93.51
51878;SHT31;37911;51.526;11.536;2023-11-21T06:21:56;6.35;93.57
51878;SHT31;37911;51.526;11.536;2023-11-21T06:25:00;6.38;93.68
51878;SHT31;37911;51.526;11.536;2023-11-21T06:28:03;6.41;93.61
51878;SHT31;37911;51.526;11.536;2023-11-21T06:31:09;6.41;93.64
51878;SHT31;37911;51.526;11.536;2023-11-21T06:34:14;6.38;93.75
51878;SHT31;37911;51.526;11.536;2023-11-21T06:37:18;6.38;93.76
51878;SHT31;37911;51.526;11.536;2023-11-21T06:40:21;6.36;93.75
51878;SHT31;37911;51.526;11.536;2023-11-21T06:43:25;6.38;93.80
51878;SHT31;37911;51.526;11.536;2023-11-21T06:46:31;6.43;93.80
51878;SHT31;37911;51.526;11.536;2023-11-21T06:49:34;6.46;93.90
51878;SHT31;37911;51.526;11.536;2023-11-21T06:52:39;6.46;93.99
51878;SHT31;37911;51.526;11.536;2023-11-21T06:55:43;6.49;94.04
51878;SHT31;37911;51.526;11.536;2023-11-21T06:58:47;6.52;94.15
51878;SHT31;37911;51.526;11.536;2023-11-21T07:01:57;6.59;94.23
51878;SHT31;37911;51.526;11.536;2023-11-21T07:05:00;6.61;94.27
51878;SHT31;37911;51.526;11.536;2023-11-21T07:08:04;6.63;94.34
51878;SHT31;37911;51.526;11.536;2023-11-21T07:11:08;6.69;94.32
51878;SHT31;37911;51.526;11.536;2023-11-21T07:14:11;6.73;94.37
51878;SHT31;37911;51.526;11.536;2023-11-21T07:17:17;6.76;94.30
51878;SHT31;37911;51.526;11.536;2023-11-21T07:20:21;6.79;94.31
51878;SHT31;37911;51.526;11.536;2023-11-21T07:23:25;6.82;94.42
51878;SHT31;37911;51.526;11.536;2023-11-21T07:26:29;6.86;94.44
51878;SHT31;37911;51.526;11.536;2023-11-21T07:29:32;6.92;94.46
51878;SHT31;37911;51.526;11.536;2023-11-21T07:32:38;6.94;94.52
51878;SHT31;37911;51.526;11.536;2023-11-21T07:35:42;6.99;94.51
51878;SHT31;37911;51.526;11.536;2023-11-21T07:38:46;7.03;94.62
51878;SHT31;37911;51.526;11.536;2023-11-21T07:41:49;7.07;94.61
51878;SHT31;37911;51.526;11.536;2023-11-21T07:44:53;7.11;94.66
51878;SHT31;37911;51.526;11.536;2023-11-21T07:47:59;7.16;94.61
51878;SHT31;37911;51.526;11.536;2023-11-21T07:51:04;7.18;94.71
51878;SHT31;37911;51.526;11.536;2023-11-21T07:54:07;7.24;94.81
51878;SHT31;37911;51.526;11.536;2023-11-21T07:57:10;7.24;94.86
51878;SHT31;37911;51.526;11.536;2023-11-21T08:00:15;7.24;94.90
51878;SHT31;37911;51.526;11.536;2023-11-21T08:03:21;7.30;95.04
51878;SHT31;37911;51.526;11.536;2023-11-21T08:06:27;7.26;95.28
51878;SHT31;37911;51.526;11.536;2023-11-21T08:09:31;7.14;95.42
51878;SHT31;37911;51.526;11.536;2023-11-21T08:12:34;7.03;95.60
51878;SHT31;37911;51.526;11.536;2023-11-21T08:15:39;7.03;95.44
51878;SHT31;37911;51.526;11.536;2023-11-21T08:18:48;6.97;95.48
51878;SHT31;37911;51.526;11.536;2023-11-21T08:21:51;6.97;95.51
51878;SHT31;37911;51.526;11.536;2023-11-21T08:24:56;6.89;95.41
51878;SHT31;37911;51.526;11.536;2023-11-21T08:27:59;6.83;95.48
51878;SHT31;37911;51.526;11.536;2023-11-21T08:31:03;6.80;95.44
51878;SHT31;37911;51.526;11.536;2023-11-21T08:34:09;6.79;95.60
51878;SHT31;37911;51.526;11.536;2023-11-21T08:37:14;6.82;95.57
51878;SHT31;37911;51.526;11.536;2023-11-21T08:40:18;6.77;95.72
51878;SHT31;37911;51.526;11.536;2023-11-21T08:43:21;6.80;95.65
51878;SHT31;37911;51.526;11.536;2023-11-21T08:46:25;6.83;95.58
51878;SHT31;37911;51.526;11.536;2023-11-21T08:49:31;6.77;95.43
51878;SHT31;37911;51.526;11.536;2023-11-21T08:52:35;6.75;95.49
51878;SHT31;37911;51.526;11.536;2023-11-21T08:55:38;6.76;95.39
51878;SHT31;37911;51.526;11.536;2023-11-21T08:58:42;6.71;95.39
51878;SHT31;37911;51.526;11.536;2023-11-21T09:01:45;6.73;95.28
51878;SHT31;37911;51.526;11.536;2023-11-21T09:04:52;6.75;95.30
51878;SHT31;37911;51.526;11.536;2023-11-21T09:07:55;6.68;95.37
51878;SHT31;37911;51.526;11.536;2023-11-21T09:10:59;6.61;95.42
51878;SHT31;37911;51.526;11.536;2023-11-21T09:14:03;6.57;95.11
51878;SHT31;37911;51.526;11.536;2023-11-21T09:17:07;6.52;95.26
51878;SHT31;37911;51.526;11.536;2023-11-21T09:20:14;6.53;95.17
51878;SHT31;37911;51.526;11.536;2023-11-21T09:23:18;6.53;95.07
51878;SHT31;37911;51.526;11.536;2023-11-21T09:26:21;6.50;94.79
51878;SHT31;37911;51.526;11.536;2023-11-21T09:29:25;6.48;94.78
51878;SHT31;37911;51.526;11.536;2023-11-21T09:32:29;6.50;94.71
51878;SHT31;37911;51.526;11.536;2023-11-21T09:35:35;6.49;94.67
51878;SHT31;37911;51.526;11.536;2023-11-21T09:38:39;6.48;94.59
51878;SHT31;37911;51.526;11.536;2023-11-21T09:41:43;6.52;94.59
51878;SHT31;37911;51.526;11.536;2023-11-21T09:44:54;6.55;94.50
51878;SHT31;37911;51.526;11.536;2023-11-21T09:48:02;6.50;94.52
51878;SHT31;37911;51.526;11.536;2023-11-21T09:51:10;6.42;94.62
51878;SHT31;37911;51.526;11.536;2023-11-21T09:54:15;6.35;94.78
51878;SHT31;37911;51.526;11.536;2023-11-21T09:57:22;6.36;94.69
51878;SHT31;37911;51.526;11.536;2023-11-21T10:00:26;6.31;94.85
51878;SHT31;37911;51.526;11.536;2023-11-21T10:03:31;6.28;94.89
51878;SHT31;37911;51.526;11.536;2023-11-21T10:06:39;6.33;95.00
51878;SHT31;37911;51.526;11.536;2023-11-21T10:09:43;6.28;94.76
51878;SHT31;37911;51.526;11.536;2023-11-21T10:12:50;6.26;94.94
51878;SHT31;37911;51.526;11.536;2023-11-21T10:15:55;6.31;95.01
51878;SHT31;37911;51.526;11.536;2023-11-21T10:19:00;6.31;95.01
51878;SHT31;37911;51.526;11.536;2023-11-21T10:22:06;6.29;95.15
51878;SHT31;37911;51.526;11.536;2023-11-21T10:25:10;6.29;95.04
51878;SHT31;37911;51.526;11.536;2023-11-21T10:28:14;6.32;95.12
51878;SHT31;37911;51.526;11.536;2023-11-21T10:31:18;6.36;94.99
51878;SHT31;37911;51.526;11.536;2023-11-21T10:34:21;6.38;94.77
51878;SHT31;37911;51.526;11.536;2023-11-21T10:37:27;6.39;94.74
51878;SHT31;37911;51.526;11.536;2023-11-21T10:40:31;6.36;94.59
51878;SHT31;37911;51.526;11.536;2023-11-21T10:43:34;6.36;94.57
51878;SHT31;37911;51.526;11.536;2023-11-21T10:46:38;6.32;94.40
51878;SHT31;37911;51.526;11.536;2023-11-21T10:49:43;6.35;94.22
51878;SHT31;37911;51.526;11.536;2023-11-21T10:52:51;6.35;94.21
51878;SHT31;37911;51.526;11.536;2023-11-21T10:56:01;6.25;94.02
51878;SHT31;37911;51.526;11.536;2023-11-21T10:59:06;6.24;93.92
51878;SHT31;37911;51.526;11.536;2023-11-21T11:02:19;6.22;93.68
51878;SHT31;37911;51.526;11.536;2023-11-21T11:05:27;6.24;93.65
51878;SHT31;37911;51.526;11.536;2023-11-21T11:08:35;6.20;93.85
51878;SHT31;37911;51.526;11.536;2023-11-21T11:11:40;6.15;93.74
51878;SHT31;37911;51.526;11.536;2023-11-21T11:14:45;6.12;93.76
51878;SHT31;37911;51.526;11.536;2023-11-21T11:17:48;6.15;93.69
51878;SHT31;37911;51.526;11.536;2023-11-21T11:20:52;6.21;93.73
51878;SHT31;37911;51.526;11.536;2023-11-21T11:24:28;6.22;93.62
51878;SHT31;37911;51.526;11.536;2023-11-21T11:27:43;6.22;93.39
51878;SHT31;37911;51.526;11.536;2023-11-21T11:30:59;6.22;93.04
51878;SHT31;37911;51.526;11.536;2023-11-21T11:37:27;6.24;92.95
51878;SHT31;37911;51.526;11.536;2023-11-21T11:40:45;6.22;92.85
51878;SHT31;37911;51.526;11.536;2023-11-21T11:43:49;6.21;92.87
51878;SHT31;37911;51.526;11.536;2023-11-21T11:46:53;6.15;92.63
51878;SHT31;37911;51.526;11.536;2023-11-21T11:50:00;6.14;92.39
51878;SHT31;37911;51.526;11.536;2023-11-21T11:53:14;6.11;92.39
51878;SHT31;37911;51.526;11.536;2023-11-21T11:56:22;6.08;92.38
51878;SHT31;37911;51.526;11.536;2023-11-21T11:59:26;6.12;92.47
51878;SHT31;37911;51.526;11.536;2023-11-21T12:02:29;6.11;92.22
51878;SHT31;37911;51.526;11.536;2023-11-21T12:05:35;6.12;92.01
51878;SHT31;37911;51.526;11.536;2023-11-21T12:08:41;6.17;91.86
51878;SHT31;37911;51.526;11.536;2023-11-21T12:11:48;6.22;91.56
51878;SHT31;37911;51.526;11.536;2023-11-21T12:14:52;6.28;91.13
51878;SHT31;37911;51.526;11.536;2023-11-21T12:17:56;6.20;91.09
51878;SHT31;37911;51.526;11.536;2023-11-21T12:20:59;6.07;90.87
51878;SHT31;37911;51.526;11.536;2023-11-21T12:24:05;5.93;90.34
51878;SHT31;37911;51.526;11.536;2023-11-21T12:27:11;5.88;90.37
51878;SHT31;37911;51.526;11.536;2023-11-21T12:30:16;5.83;90.06
51878;SHT31;37911;51.526;11.536;2023-11-21T12:33:20;5.81;90.35
51878;SHT31;37911;51.526;11.536;2023-11-21T12:36:24;5.73;90.31
51878;SHT31;37911;51.526;11.536;2023-11-21T12:39:29;5.68;90.69
51878;SHT31;37911;51.526;11.536;2023-11-21T12:42:35;5.68;90.60
51878;SHT31;37911;51.526;11.536;2023-11-21T12:45:39;5.70;90.73
51878;SHT31;37911;51.526;11.536;2023-11-21T12:48:45;5.68;90.63
51878;SHT31;37911;51.526;11.536;2023-11-21T12:51:48;5.68;90.69
51878;SHT31;37911;51.526;11.536;2023-11-21T12:54:52;5.73;90.49
51878;SHT31;37911;51.526;11.536;2023-11-21T12:58:02;5.74;90.44
51878;SHT31;37911;51.526;11.536;2023-11-21T13:01:09;5.80;90.49
51878;SHT31;37911;51.526;11.536;2023-11-21T13:04:12;5.83;90.29
51878;SHT31;37911;51.526;11.536;2023-11-21T13:07:16;5.80;90.23
51878;SHT31;37911;51.526;11.536;2023-11-21T13:10:23;5.83;90.27
51878;SHT31;37911;51.526;11.536;2023-11-21T13:13:32;5.77;90.04
51878;SHT31;37911;51.526;11.536;2023-11-21T13:16:35;5.77;89.86
51878;SHT31;37911;51.526;11.536;2023-11-21T13:19:39;5.80;89.48
51878;SHT31;37911;51.526;11.536;2023-11-21T13:22:47;5.83;89.70
51878;SHT31;37911;51.526;11.536;2023-11-21T13:25:55;5.84;89.62
51878;SHT31;37911;51.526;11.536;2023-11-21T13:29:07;5.90;89.62
51878;SHT31;37911;51.526;11.536;2023-11-21T13:32:13;5.74;89.35
51878;SHT31;37911;51.526;11.536;2023-11-21T13:35:17;5.83;89.27
51878;SHT31;37911;51.526;11.536;2023-11-21T13:38:31;5.83;89.03
51878;SHT31;37911;51.526;11.536;2023-11-21T13:41:36;5.83;88.64
51878;SHT31;37911;51.526;11.536;2023-11-21T13:44:43;5.86;88.80
51878;SHT31;37911;51.526;11.536;2023-11-21T13:47:50;5.80;88.62
51878;SHT31;37911;51.526;11.536;2023-11-21T13:50:59;5.80;87.88
51878;SHT31;37911;51.526;11.536;2023-11-21T13:54:11;5.73;87.60
51878;SHT31;37911;51.526;11.536;2023-11-21T13:57:14;5.68;87.64
51878;SHT31;37911;51.526;11.536;2023-11-21T14:00:20;5.63;87.82
51878;SHT31;37911;51.526;11.536;2023-11-21T14:03:42;5.67;88.07
51878;SHT31;37911;51.526;11.536;2023-11-21T14:06:52;5.64;88.40
51878;SHT31;37911;51.526;11.536;2023-11-21T14:09:56;5.57;88.49
51878;SHT31;37911;51.526;11.536;2023-11-21T14:12:59;5.60;88.56
51878;SHT31;37911;51.526;11.536;2023-11-21T14:16:06;5.58;88.49
51878;SHT31;37911;51.526;11.536;2023-11-21T14:19:12;5.63;88.49
51878;SHT31;37911;51.526;11.536;2023-11-21T14:22:18;5.54;88.11
51878;SHT31;37911;51.526;11.536;2023-11-21T14:25:22;5.54;88.30
51878;SHT31;37911;51.526;11.536;2023-11-21T14:28:25;5.58;88.69
51878;SHT31;37911;51.526;11.536;2023-11-21T14:31:31;5.58;88.63
51878;SHT31;37911;51.526;11.536;2023-11-21T14:34:35;5.58;88.60
51878;SHT31;37911;51.526;11.536;2023-11-21T14:37:38;5.56;88.37
51878;SHT31;37911;51.526;11.536;2023-11-21T14:40:42;5.53;88.66
51878;SHT31;37911;51.526;11.536;2023-11-21T14:43:48;5.57;88.60
51878;SHT31;37911;51.526;11.536;2023-11-21T14:46:54;5.48;87.54
51878;SHT31;37911;51.526;11.536;2023-11-21T14:49:58;5.33;87.24
51878;SHT31;37911;51.526;11.536;2023-11-21T14:53:22;5.32;87.14
51878;SHT31;37911;51.526;11.536;2023-11-21T14:56:46;5.25;87.41
51878;SHT31;37911;51.526;11.536;2023-11-21T14:59:48;5.26;87.58
51878;SHT31;37911;51.526;11.536;2023-11-21T15:02:54;5.22;87.62
51878;SHT31;37911;51.526;11.536;2023-11-21T15:05:55;5.18;87.35
51878;SHT31;37911;51.526;11.536;2023-11-21T15:08:59;5.19;86.34
51878;SHT31;37911;51.526;11.536;2023-11-21T15:12:35;5.16;85.75
51878;SHT31;37911;51.526;11.536;2023-11-21T15:15:40;5.13;85.67
51878;SHT31;37911;51.526;11.536;2023-11-21T15:18:46;5.06;85.45
51878;SHT31;37911;51.526;11.536;2023-11-21T15:21:50;5.03;85.35
51878;SHT31;37911;51.526;11.536;2023-11-21T15:24:54;4.92;85.13
51878;SHT31;37911;51.526;11.536;2023-11-21T15:27:58;4.88;84.73
51878;SHT31;37911;51.526;11.536;2023-11-21T15:31:01;4.93;84.70
51878;SHT31;37911;51.526;11.536;2023-11-21T15:34:08;4.89;83.73
51878;SHT31;37911;51.526;11.536;2023-11-21T15:37:11;4.75;83.12
51878;SHT31;37911;51.526;11.536;2023-11-21T15:40:16;4.73;83.24
51878;SHT31;37911;51.526;11.536;2023-11-21T15:43:19;4.65;82.70
51878;SHT31;37911;51.526;11.536;2023-11-21T15:46:22;4.52;82.31
51878;SHT31;37911;51.526;11.536;2023-11-21T15:49:28;4.47;81.46
51878;SHT31;37911;51.526;11.536;2023-11-21T15:52:35;4.48;81.61
51878;SHT31;37911;51.526;11.536;2023-11-21T15:55:39;4.40;81.43
51878;SHT31;37911;51.526;11.536;2023-11-21T15:58:44;4.37;81.33
51878;SHT31;37911;51.526;11.536;2023-11-21T16:01:47;4.36;81.42
51878;SHT31;37911;51.526;11.536;2023-11-21T16:04:53;4.40;81.61
51878;SHT31;37911;51.526;11.536;2023-11-21T16:07:57;4.41;81.98
51878;SHT31;37911;51.526;11.536;2023-11-21T16:11:01;4.37;81.91
51878;SHT31;37911;51.526;11.536;2023-11-21T16:14:04;4.41;82.67
51878;SHT31;37911;51.526;11.536;2023-11-21T16:17:09;4.45;82.11
51878;SHT31;37911;51.526;11.536;2023-11-21T16:20:16;4.44;81.55
51878;SHT31;37911;51.526;11.536;2023-11-21T16:23:20;4.40;80.99
51878;SHT31;37911;51.526;11.536;2023-11-21T16:26:23;4.37;81.27
51878;SHT31;37911;51.526;11.536;2023-11-21T16:29:27;4.40;81.25
51878;SHT31;37911;51.526;11.536;2023-11-21T16:32:31;4.47;81.68
51878;SHT31;37911;51.526;11.536;2023-11-21T16:35:39;4.47;81.71
51878;SHT31;37911;51.526;11.536;2023-11-21T16:38:42;4.45;81.35
51878;SHT31;37911;51.526;11.536;2023-11-21T16:41:46;4.41;81.32
51878;SHT31;37911;51.526;11.536;2023-11-21T16:44:50;4.34;81.55
51878;SHT31;37911;51.526;11.536;2023-11-21T16:47:54;4.37;81.61
51878;SHT31;37911;51.526;11.536;2023-11-21T16:51:00;4.30;81.79
51878;SHT31;37911;51.526;11.536;2023-11-21T16:54:04;4.33;81.66
51878;SHT31;37911;51.526;11.536;2023-11-21T16:57:07;4.30;81.31
51878;SHT31;37911;51.526;11.536;2023-11-21T17:00:12;4.37;81.47
51878;SHT31;37911;51.526;11.536;2023-11-21T17:03:18;4.37;81.15
51878;SHT31;37911;51.526;11.536;2023-11-21T17:06:27;4.41;81.67
51878;SHT31;37911;51.526;11.536;2023-11-21T17:09:31;4.40;81.21
51878;SHT31;37911;51.526;11.536;2023-11-21T17:12:35;4.34;81.37
51878;SHT31;37911;51.526;11.536;2023-11-21T17:15:39;4.31;82.03
51878;SHT31;37911;51.526;11.536;2023-11-21T17:18:46;4.33;82.55
51878;SHT31;37911;51.526;11.536;2023-11-21T17:21:52;4.30;82.95
51878;SHT31;37911;51.526;11.536;2023-11-21T17:24:56;4.30;83.32
51878;SHT31;37911;51.526;11.536;2023-11-21T17:28:00;4.30;83.47
51878;SHT31;37911;51.526;11.536;2023-11-21T17:31:04;4.28;83.76
51878;SHT31;37911;51.526;11.536;2023-11-21T17:34:08;4.33;83.93
51878;SHT31;37911;51.526;11.536;2023-11-21T17:37:14;4.34;84.21
51878;SHT31;37911;51.526;11.536;2023-11-21T17:40:17;4.36;84.63
51878;SHT31;37911;51.526;11.536;2023-11-21T17:43:22;4.37;84.66
51878;SHT31;37911;51.526;11.536;2023-11-21T17:46:25;4.31;84.30
51878;SHT31;37911;51.526;11.536;2023-11-21T17:49:28;4.33;84.47
51878;SHT31;37911;51.526;11.536;2023-11-21T17:52:35;4.28;84.74
51878;SHT31;37911;51.526;11.536;2023-11-21T17:55:38;4.31;84.78
51878;SHT31;37911;51.526;11.536;2023-11-21T17:58:42;4.27;84.30
51878;SHT31;37911;51.526;11.536;2023-11-21T18:01:46;4.25;84.02
51878;SHT31;37911;51.526;11.536;2023-11-21T18:04:50;4.25;83.90
51878;SHT31;37911;51.526;11.536;2023-11-21T18:07:56;4.27;83.41
51878;SHT31;37911;51.526;11.536;2023-11-21T18:11:00;4.31;83.35
51878;SHT31;37911;51.526;11.536;2023-11-21T18:14:05;4.28;83.43
51878;SHT31;37911;51.526;11.536;2023-11-21T18:17:10;4.27;83.24
51878;SHT31;37911;51.526;11.536;2023-11-21T18:20:15;4.24;82.91
51878;SHT31;37911;51.526;11.536;2023-11-21T18:23:21;4.22;83.02
51878;SHT31;37911;51.526;11.536;2023-11-21T18:26:25;4.24;82.72
51878;SHT31;37911;51.526;11.536;2023-11-21T18:29:29;4.25;82.53
51878;SHT31;37911;51.526;11.536;2023-11-21T18:32:33;4.25;82.91
51878;SHT31;37911;51.526;11.536;2023-11-21T18:35:37;4.28;83.01
51878;SHT31;37911;51.526;11.536;2023-11-21T18:38:43;4.30;83.11
51878;SHT31;37911;51.526;11.536;2023-11-21T18:41:46;4.21;82.79
51878;SHT31;37911;51.526;11.536;2023-11-21T18:44:50;4.17;83.07
51878;SHT31;37911;51.526;11.536;2023-11-21T18:47:54;4.14;83.49
51878;SHT31;37911;51.526;11.536;2023-11-21T18:50:57;4.13;84.13
51878;SHT31;37911;51.526;11.536;2023-11-21T18:54:04;4.16;84.36
51878;SHT31;37911;51.526;11.536;2023-11-21T18:57:08;4.17;83.98
51878;SHT31;37911;51.526;11.536;2023-11-21T19:00:12;4.03;82.35
51878;SHT31;37911;51.526;11.536;2023-11-21T19:03:17;3.96;82.27
51878;SHT31;37911;51.526;11.536;2023-11-21T19:06:21;3.99;82.32
51878;SHT31;37911;51.526;11.536;2023-11-21T19:09:28;3.96;82.12
51878;SHT31;37911;51.526;11.536;2023-11-21T19:12:34;3.93;81.82
51878;SHT31;37911;51.526;11.536;2023-11-21T19:15:39;3.93;82.13
51878;SHT31;37911;51.526;11.536;2023-11-21T19:18:44;3.91;81.29
51878;SHT31;37911;51.526;11.536;2023-11-21T19:21:49;3.90;81.46
51878;SHT31;37911;51.526;11.536;2023-11-21T19:24:55;3.91;81.52
51878;SHT31;37911;51.526;11.536;2023-11-21T19:27:59;3.90;81.53
51878;SHT31;37911;51.526;11.536;2023-11-21T19:31:02;3.86;81.93